createdAt,value
2023-02-06T00:00:57.405Z,31.98
2023-02-06T00:03:23.759Z,32.19
2023-02-06T00:05:50.204Z,31.99
2023-02-06T00:08:16.600Z,31.95
2023-02-06T00:10:42.960Z,31.81
2023-02-06T00:13:09.303Z,31.83
2023-02-06T00:15:36.149Z,32.17
2023-02-06T00:18:02.729Z,32.03
2023-02-06T00:20:29.090Z,32.36
2023-02-06T00:22:55.472Z,32.15
2023-02-06T00:25:21.822Z,32.05
2023-02-06T00:27:48.233Z,32.30
2023-02-06T00:30:14.734Z,32.32
2023-02-06T00:32:41.162Z,32.19
2023-02-06T00:35:07.602Z,32.04
2023-02-06T00:37:33.992Z,32.19
2023-02-06T00:40:00.381Z,32.16
2023-02-06T00:42:26.746Z,32.30
2023-02-06T00:44:53.127Z,31.82
2023-02-06T00:47:19.603Z,31.95
2023-02-06T00:49:45.973Z,32.12
2023-02-06T00:52:12.334Z,32.07
2023-02-06T00:54:38.717Z,32.14
2023-02-06T00:57:05.095Z,31.90
2023-02-06T00:59:31.460Z,31.97
2023-02-06T01:01:57.881Z,32.07
2023-02-06T01:04:24.257Z,31.73
2023-02-06T01:06:50.957Z,31.90
2023-02-06T01:09:17.306Z,32.20
2023-02-06T01:11:43.680Z,32.15
2023-02-06T01:14:10.060Z,32.12
2023-02-06T01:16:36.421Z,32.13
2023-02-06T01:19:02.818Z,32.17
2023-02-06T01:21:29.226Z,32.06
2023-02-06T01:23:55.601Z,31.96
2023-02-06T01:26:21.975Z,31.89
2023-02-06T01:28:48.353Z,32.17
2023-02-06T01:31:14.764Z,31.91
2023-02-06T01:33:41.146Z,31.96
2023-02-06T01:36:07.520Z,32.22
2023-02-06T01:38:33.885Z,32.17
2023-02-06T01:41:00.281Z,31.77
2023-02-06T01:43:26.644Z,32.07
2023-02-06T01:45:52.993Z,32.06
2023-02-06T01:48:19.463Z,32.12
2023-02-06T01:50:45.828Z,31.77
2023-02-06T01:53:12.171Z,31.98
2023-02-06T01:55:38.644Z,31.96
2023-02-06T01:58:05.065Z,31.95
2023-02-06T02:00:31.433Z,31.85
2023-02-06T02:02:57.961Z,32.18
2023-02-06T02:05:24.335Z,31.78
2023-02-06T02:07:50.698Z,32.08
2023-02-06T02:10:17.120Z,31.84
2023-02-06T02:12:43.492Z,31.99
2023-02-06T02:15:09.850Z,32.03
2023-02-06T02:17:36.230Z,31.88
2023-02-06T02:20:02.612Z,32.28
2023-02-06T02:22:28.984Z,31.81
2023-02-06T02:24:55.356Z,31.86
2023-02-06T02:27:21.718Z,31.90
2023-02-06T02:29:48.077Z,32.13
2023-02-06T02:32:14.438Z,32.00
2023-02-06T02:34:40.824Z,31.83
2023-02-06T02:37:07.191Z,32.04
2023-02-06T02:39:33.568Z,31.99
2023-02-06T02:41:59.941Z,31.99
2023-02-06T02:44:26.320Z,32.07
2023-02-06T02:46:52.680Z,31.92
2023-02-06T02:49:19.040Z,32.12
2023-02-06T02:51:45.422Z,31.90
2023-02-06T02:54:11.779Z,32.03
2023-02-06T02:56:38.135Z,31.77
2023-02-06T02:59:04.499Z,31.71
2023-02-06T03:01:30.860Z,32.15
2023-02-06T03:03:57.341Z,31.97
2023-02-06T03:06:23.701Z,31.72
2023-02-06T03:08:50.078Z,32.11
2023-02-06T03:11:16.448Z,31.62
2023-02-06T03:13:42.816Z,31.55
2023-02-06T03:16:09.197Z,32.00
2023-02-06T03:18:35.599Z,32.07
2023-02-06T03:21:01.974Z,31.72
2023-02-06T03:23:28.350Z,31.69
2023-02-06T03:25:54.708Z,31.97
2023-02-06T03:28:21.061Z,31.66
2023-02-06T03:30:47.479Z,32.00
2023-02-06T03:33:13.851Z,31.96
2023-02-06T03:35:40.233Z,31.97
2023-02-06T03:38:06.609Z,31.94
2023-02-06T03:40:32.976Z,32.01
2023-02-06T03:42:59.326Z,31.90
2023-02-06T03:45:25.708Z,31.67
2023-02-06T03:47:52.083Z,31.75
2023-02-06T03:50:18.460Z,31.96
2023-02-06T03:52:44.855Z,31.84
2023-02-06T03:55:11.220Z,31.83
2023-02-06T03:57:37.584Z,31.93
2023-02-06T04:00:04.046Z,31.76
2023-02-06T04:02:30.479Z,31.79
2023-02-06T04:04:56.872Z,32.16
2023-02-06T04:07:23.237Z,31.90
2023-02-06T04:09:49.600Z,31.86
2023-02-06T04:12:15.989Z,32.06
2023-02-06T04:14:42.365Z,31.71
2023-02-06T04:17:08.718Z,31.88
2023-02-06T04:19:35.086Z,31.92
2023-02-06T04:22:01.475Z,31.89
2023-02-06T04:24:30.500Z,31.92
2023-02-06T04:26:57.388Z,31.82
2023-02-06T04:29:23.738Z,31.67
2023-02-06T04:31:50.105Z,31.85
2023-02-06T04:34:16.482Z,31.71
2023-02-06T04:36:42.841Z,31.64
2023-02-06T04:39:09.189Z,31.84
2023-02-06T04:41:35.666Z,31.83
2023-02-06T04:44:02.043Z,31.74
2023-02-06T04:46:28.476Z,31.61
2023-02-06T04:48:54.846Z,31.79
2023-02-06T04:51:21.201Z,31.67
2023-02-06T04:53:47.591Z,31.49
2023-02-06T04:56:13.945Z,31.88
2023-02-06T04:58:40.327Z,31.86
2023-02-06T05:01:06.672Z,31.75
2023-02-06T05:03:33.052Z,31.69
2023-02-06T05:05:59.439Z,31.45
2023-02-06T05:08:25.787Z,31.65
2023-02-06T05:10:52.189Z,31.50
2023-02-06T05:13:18.566Z,31.71
2023-02-06T05:15:44.938Z,31.67
2023-02-06T05:18:11.306Z,31.53
2023-02-06T05:20:37.680Z,31.56
2023-02-06T05:23:04.031Z,31.38
2023-02-06T05:25:30.388Z,31.66
2023-02-06T05:27:56.917Z,31.69
2023-02-06T05:30:23.321Z,31.44
2023-02-06T05:32:49.670Z,31.66
2023-02-06T05:35:16.076Z,31.39
2023-02-06T05:37:42.448Z,31.64
2023-02-06T05:40:08.807Z,31.50
2023-02-06T05:42:35.181Z,31.89
2023-02-06T05:45:01.581Z,31.48
2023-02-06T05:47:27.976Z,31.54
2023-02-06T05:49:54.326Z,31.58
2023-02-06T05:52:20.707Z,31.33
2023-02-06T05:54:47.081Z,31.59
2023-02-06T05:57:13.443Z,31.58
2023-02-06T05:59:39.856Z,31.49
2023-02-06T06:02:06.219Z,31.65
2023-02-06T06:04:32.623Z,31.37
2023-02-06T06:06:59.021Z,31.66
2023-02-06T06:09:25.392Z,31.49
2023-02-06T06:11:51.768Z,31.33
2023-02-06T06:14:18.155Z,31.40
2023-02-06T06:16:44.517Z,31.47
2023-02-06T06:19:10.881Z,31.50
2023-02-06T06:21:37.269Z,31.33
2023-02-06T06:24:03.632Z,31.40
2023-02-06T06:26:30.036Z,31.32
2023-02-06T06:28:56.390Z,31.54
2023-02-06T06:31:22.798Z,31.24
2023-02-06T06:33:49.197Z,31.25
2023-02-06T06:36:16.702Z,31.51
2023-02-06T06:38:43.072Z,31.22
2023-02-06T06:41:09.480Z,31.39
2023-02-06T06:43:35.852Z,31.09
2023-02-06T06:46:02.298Z,31.37
2023-02-06T06:48:28.956Z,31.33
2023-02-06T06:50:55.402Z,31.08
2023-02-06T06:53:21.776Z,31.51
2023-02-06T06:55:48.133Z,31.34
2023-02-06T06:58:14.619Z,31.27
2023-02-06T07:00:41.003Z,31.21
2023-02-06T07:03:07.452Z,31.16
2023-02-06T07:05:34.011Z,31.32
2023-02-06T07:08:00.555Z,31.18
2023-02-06T07:10:26.922Z,31.03
2023-02-06T07:12:53.288Z,31.16
2023-02-06T07:15:19.672Z,31.11
2023-02-06T07:17:46.074Z,31.23
2023-02-06T07:20:12.458Z,31.26
2023-02-06T07:22:38.838Z,31.06
2023-02-06T07:25:05.228Z,30.91
2023-02-06T07:27:31.587Z,31.16
2023-02-06T07:29:57.985Z,31.02
2023-02-06T07:32:24.353Z,31.25
2023-02-06T07:34:50.719Z,30.87
2023-02-06T07:37:17.075Z,31.24
2023-02-06T07:39:43.435Z,30.92
2023-02-06T07:42:09.780Z,31.08
2023-02-06T07:44:36.164Z,30.79
2023-02-06T07:47:02.524Z,31.00
2023-02-06T07:49:28.894Z,30.86
2023-02-06T07:51:55.275Z,30.92
2023-02-06T07:54:21.675Z,30.70
2023-02-06T07:56:48.051Z,30.75
2023-02-06T07:59:14.453Z,30.83
2023-02-06T08:01:40.851Z,30.41
2023-02-06T08:04:07.275Z,30.61
2023-02-06T08:06:33.654Z,30.41
2023-02-06T08:09:00.006Z,30.48
2023-02-06T08:11:26.486Z,30.27
2023-02-06T08:13:52.851Z,30.15
2023-02-06T08:16:19.248Z,29.84
2023-02-06T08:18:45.668Z,29.89
2023-02-06T08:21:12.032Z,29.99
2023-02-06T08:23:38.424Z,30.07
2023-02-06T08:26:04.803Z,30.00
2023-02-06T08:28:31.176Z,30.13
2023-02-06T08:30:57.635Z,29.79
2023-02-06T08:33:24.034Z,29.91
2023-02-06T08:35:50.403Z,29.66
2023-02-06T08:38:16.777Z,29.90
2023-02-06T08:40:43.167Z,29.97
2023-02-06T08:43:09.546Z,29.51
2023-02-06T08:45:36.081Z,29.69
2023-02-06T08:48:02.607Z,29.82
2023-02-06T08:50:28.993Z,29.71
2023-02-06T08:52:55.390Z,29.90
2023-02-06T08:55:25.320Z,29.42
2023-02-06T08:57:51.846Z,29.77
2023-02-06T09:00:18.243Z,29.71
2023-02-06T09:02:44.622Z,29.41
2023-02-06T09:05:11.051Z,29.74
2023-02-06T09:07:37.420Z,29.61
2023-02-06T09:10:03.812Z,29.65
2023-02-06T09:12:30.223Z,29.61
2023-02-06T09:14:56.571Z,29.48
2023-02-06T09:17:22.939Z,29.29
2023-02-06T09:19:49.289Z,29.50
2023-02-06T09:22:15.683Z,29.15
2023-02-06T09:24:42.051Z,29.36
2023-02-06T09:27:08.399Z,29.53
2023-02-06T09:29:34.760Z,29.08
2023-02-06T09:32:01.152Z,29.39
2023-02-06T09:34:27.575Z,29.09
2023-02-06T09:36:53.973Z,29.23
2023-02-06T09:39:20.365Z,29.07
2023-02-06T09:41:46.738Z,29.28
2023-02-06T09:44:13.099Z,29.29
2023-02-06T09:46:39.520Z,29.46
2023-02-06T09:49:05.890Z,29.52
2023-02-06T09:51:32.265Z,29.41
2023-02-06T09:53:58.627Z,29.44
2023-02-06T09:56:25.002Z,29.05
2023-02-06T09:58:51.389Z,29.49
2023-02-06T10:01:17.790Z,29.25
2023-02-06T10:03:44.263Z,28.92
2023-02-06T10:06:10.680Z,29.39
2023-02-06T10:08:37.045Z,29.36
2023-02-06T10:11:03.427Z,29.70
2023-02-06T10:13:29.801Z,29.74
2023-02-06T10:15:56.174Z,29.59
2023-02-06T10:18:22.560Z,29.36
2023-02-06T10:20:48.941Z,29.46
2023-02-06T10:23:15.341Z,29.44
2023-02-06T10:25:41.711Z,29.50
2023-02-06T10:28:08.160Z,29.37
2023-02-06T10:30:34.619Z,29.68
2023-02-06T10:33:00.992Z,29.58
2023-02-06T10:35:27.359Z,29.57
2023-02-06T10:37:53.795Z,29.84
2023-02-06T10:40:20.171Z,29.42
2023-02-06T10:42:46.521Z,29.98
2023-02-06T10:45:20.990Z,29.47
2023-02-06T10:47:47.484Z,30.08
2023-02-06T10:50:13.866Z,29.70
2023-02-06T10:52:40.217Z,29.80
2023-02-06T10:55:06.589Z,29.66
2023-02-06T10:57:32.996Z,29.77
2023-02-06T10:59:59.363Z,29.76
2023-02-06T11:02:25.814Z,29.68
2023-02-06T11:04:52.185Z,29.74
2023-02-06T11:07:18.556Z,29.86
2023-02-06T11:09:44.920Z,30.02
2023-02-06T11:12:11.321Z,29.72
2023-02-06T11:14:37.711Z,29.92
2023-02-06T11:17:04.084Z,29.87
2023-02-06T11:19:30.426Z,29.77
2023-02-06T11:21:56.829Z,29.81
2023-02-06T11:24:23.236Z,29.94
2023-02-06T11:26:49.840Z,30.02
2023-02-06T11:29:16.236Z,29.98
2023-02-06T11:31:45.488Z,29.89
2023-02-06T11:34:11.940Z,30.07
2023-02-06T11:36:38.315Z,29.92
2023-02-06T11:39:04.787Z,29.84
2023-02-06T11:41:31.166Z,29.95
2023-02-06T11:43:57.537Z,29.60
2023-02-06T11:46:23.911Z,29.80
2023-02-06T11:48:50.289Z,29.86
2023-02-06T11:51:16.660Z,29.58
2023-02-06T11:53:43.012Z,29.75
2023-02-06T11:56:09.406Z,29.80
2023-02-06T11:58:35.774Z,29.69
2023-02-06T12:01:02.144Z,29.64
2023-02-06T12:03:28.666Z,29.60
2023-02-06T12:05:56.398Z,29.68
2023-02-06T12:08:23.598Z,30.03
2023-02-06T12:10:49.983Z,30.06
2023-02-06T12:13:16.338Z,29.53
2023-02-06T12:15:46.938Z,29.78
2023-02-06T12:18:13.802Z,29.93
2023-02-06T12:20:40.179Z,29.73
2023-02-06T12:23:06.538Z,29.65
2023-02-06T12:25:32.975Z,29.49
2023-02-06T12:27:59.386Z,29.50
2023-02-06T12:30:25.763Z,29.41
2023-02-06T12:32:52.226Z,29.56
2023-02-06T12:35:18.587Z,29.42
2023-02-06T12:37:44.987Z,29.81
2023-02-06T12:40:11.387Z,29.51
2023-02-06T12:42:37.761Z,29.52
2023-02-06T12:45:04.167Z,29.61
2023-02-06T12:47:30.541Z,29.78
2023-02-06T12:49:56.908Z,29.26
2023-02-06T12:52:23.305Z,29.78
2023-02-06T12:54:49.712Z,29.70
2023-02-06T12:57:16.089Z,29.73
2023-02-06T12:59:56.583Z,29.62
2023-02-06T13:02:24.241Z,29.59
2023-02-06T13:04:50.716Z,29.42
2023-02-06T13:07:17.088Z,29.56
2023-02-06T13:09:43.480Z,29.75
2023-02-06T13:12:09.876Z,29.33
2023-02-06T13:14:36.250Z,29.94
2023-02-06T13:17:02.632Z,29.65
2023-02-06T13:19:28.987Z,29.41
2023-02-06T13:21:55.403Z,29.73
2023-02-06T13:24:21.826Z,29.96
2023-02-06T13:26:48.200Z,29.66
2023-02-06T13:29:14.550Z,29.80
2023-02-06T13:31:40.964Z,29.85
2023-02-06T13:34:07.344Z,29.99
2023-02-06T13:36:33.752Z,30.08
2023-02-06T13:39:00.133Z,29.66
2023-02-06T13:41:26.491Z,30.07
2023-02-06T13:43:52.869Z,30.04
2023-02-06T13:46:19.231Z,29.79
2023-02-06T13:48:46.822Z,29.85
2023-02-06T13:51:13.369Z,29.83
2023-02-06T13:53:39.715Z,29.71
2023-02-06T13:56:06.089Z,29.61
2023-02-06T13:58:32.487Z,29.73
2023-02-06T14:00:58.852Z,29.58
2023-02-06T14:03:25.222Z,29.66
2023-02-06T14:05:51.581Z,29.49
2023-02-06T14:08:17.970Z,29.60
2023-02-06T14:10:44.319Z,29.95
2023-02-06T14:13:10.687Z,29.94
2023-02-06T14:15:37.392Z,29.60
2023-02-06T14:18:03.921Z,29.88
2023-02-06T14:20:30.294Z,29.91
2023-02-06T14:22:56.667Z,29.74
2023-02-06T14:25:23.033Z,29.70
2023-02-06T14:27:49.431Z,29.58
2023-02-06T14:30:15.819Z,29.47
2023-02-06T14:32:42.198Z,29.61
2023-02-06T14:35:08.543Z,29.50
2023-02-06T14:37:34.912Z,29.16
2023-02-06T14:40:04.699Z,27.99
2023-02-06T14:42:31.220Z,28.07
2023-02-06T14:44:57.571Z,28.89
2023-02-06T14:47:23.949Z,28.05
2023-02-06T14:49:50.322Z,28.55
2023-02-06T14:52:16.708Z,28.70
2023-02-06T14:54:43.091Z,28.50
2023-02-06T14:57:09.583Z,29.08
2023-02-06T14:59:35.940Z,28.89
2023-02-06T15:02:02.312Z,29.18
2023-02-06T15:04:28.679Z,29.36
2023-02-06T15:06:55.022Z,29.18
2023-02-06T15:09:21.394Z,29.25
2023-02-06T15:11:47.761Z,29.03
2023-02-06T15:14:14.159Z,29.11
2023-02-06T15:16:40.531Z,28.87
2023-02-06T15:19:06.886Z,29.22
2023-02-06T15:21:33.255Z,28.96
2023-02-06T15:23:59.617Z,28.76
2023-02-06T15:26:25.971Z,29.06
2023-02-06T15:28:52.334Z,28.95
2023-02-06T15:31:18.786Z,29.09
2023-02-06T15:33:45.183Z,28.80
2023-02-06T15:36:11.526Z,28.96
2023-02-06T15:38:37.874Z,28.91
2023-02-06T15:41:04.268Z,28.99
2023-02-06T15:43:30.671Z,28.76
2023-02-06T15:45:57.120Z,28.96
2023-02-06T15:48:23.503Z,29.06
2023-02-06T15:50:49.888Z,28.95
2023-02-06T15:53:16.265Z,28.87
2023-02-06T15:55:42.623Z,28.99
2023-02-06T15:58:08.978Z,28.86
2023-02-06T16:00:35.504Z,28.61
2023-02-06T16:03:02.122Z,28.65
2023-02-06T16:05:28.486Z,28.75
2023-02-06T16:07:54.876Z,28.69
2023-02-06T16:10:21.254Z,28.78
2023-02-06T16:12:47.632Z,28.71
2023-02-06T16:15:14.013Z,28.63
2023-02-06T16:17:40.380Z,28.44
2023-02-06T16:20:06.755Z,28.62
2023-02-06T16:22:33.130Z,28.60
2023-02-06T16:24:59.488Z,28.49
2023-02-06T16:27:25.884Z,28.37
2023-02-06T16:29:52.276Z,28.17
2023-02-06T16:32:18.656Z,28.40
2023-02-06T16:34:45.026Z,28.07
2023-02-06T16:37:11.584Z,28.30
2023-02-06T16:39:37.945Z,28.18
2023-02-06T16:42:04.416Z,28.07
2023-02-06T16:44:43.949Z,28.10
2023-02-06T16:47:11.322Z,28.26
2023-02-06T16:49:37.685Z,28.31
2023-02-06T16:52:04.076Z,27.92
2023-02-06T16:54:30.432Z,28.12
2023-02-06T16:56:56.833Z,28.12
2023-02-06T16:59:23.232Z,28.36
2023-02-06T17:01:49.572Z,27.88
2023-02-06T17:04:15.933Z,27.83
2023-02-06T17:06:42.309Z,27.84
2023-02-06T17:09:08.671Z,28.34
2023-02-06T17:11:35.050Z,28.12
2023-02-06T17:14:01.465Z,28.00
2023-02-06T17:16:27.831Z,28.01
2023-02-06T17:18:54.201Z,28.28
2023-02-06T17:21:20.591Z,27.99
2023-02-06T17:23:46.963Z,28.11
2023-02-06T17:26:13.312Z,28.25
2023-02-06T17:28:39.688Z,27.99
2023-02-06T17:31:06.124Z,28.18
2023-02-06T17:33:32.614Z,28.07
2023-02-06T17:35:58.962Z,28.09
2023-02-06T17:38:25.664Z,28.22
2023-02-06T17:40:52.046Z,28.34
2023-02-06T17:43:18.403Z,28.14
2023-02-06T17:45:44.803Z,28.25
2023-02-06T17:48:11.179Z,28.26
2023-02-06T17:50:37.979Z,28.15
2023-02-06T17:53:04.610Z,28.21
2023-02-06T17:55:30.964Z,28.43
2023-02-06T17:57:57.322Z,28.33
2023-02-06T18:00:23.860Z,28.11
2023-02-06T18:02:50.284Z,28.27
2023-02-06T18:05:16.690Z,28.45
2023-02-06T18:07:43.079Z,28.55
2023-02-06T18:10:09.436Z,28.21
2023-02-06T18:12:35.819Z,28.21
2023-02-06T18:15:02.233Z,28.35
2023-02-06T18:17:28.599Z,28.07
2023-02-06T18:19:54.967Z,28.52
2023-02-06T18:22:21.357Z,28.33
2023-02-06T18:24:47.740Z,28.45
2023-02-06T18:27:14.114Z,28.46
2023-02-06T18:29:49.434Z,28.26
2023-02-06T18:32:16.412Z,28.35
2023-02-06T18:34:42.811Z,28.66
2023-02-06T18:37:09.188Z,28.16
2023-02-06T18:39:35.550Z,28.35
2023-02-06T18:42:01.931Z,28.15
2023-02-06T18:44:28.280Z,28.33
2023-02-06T18:46:54.728Z,28.53
2023-02-06T18:49:21.136Z,28.49
2023-02-06T18:51:47.506Z,28.46
2023-02-06T18:54:13.868Z,28.50
2023-02-06T18:56:40.346Z,28.41
2023-02-06T18:59:06.683Z,28.54
2023-02-06T19:01:33.054Z,28.50
2023-02-06T19:03:59.411Z,28.84
2023-02-06T19:06:25.785Z,28.62
2023-02-06T19:08:52.219Z,28.66
2023-02-06T19:11:18.617Z,28.82
2023-02-06T19:13:44.979Z,28.54
2023-02-06T19:16:11.440Z,28.78
2023-02-06T19:18:41.559Z,28.61
2023-02-06T19:21:08.394Z,28.31
2023-02-06T19:23:34.777Z,28.30
2023-02-06T19:26:01.170Z,28.61
2023-02-06T19:28:27.532Z,28.65
2023-02-06T19:30:53.992Z,28.76
2023-02-06T19:33:20.478Z,28.52
2023-02-06T19:35:46.851Z,28.61
2023-02-06T19:38:13.206Z,29.06
2023-02-06T19:40:39.662Z,28.62
2023-02-06T19:43:06.094Z,28.61
2023-02-06T19:45:32.528Z,28.98
2023-02-06T19:47:58.894Z,28.71
2023-02-06T19:50:25.251Z,28.67
2023-02-06T19:52:51.641Z,28.99
2023-02-06T19:55:18.011Z,28.72
2023-02-06T19:57:44.376Z,29.01
2023-02-06T20:00:10.765Z,28.94
2023-02-06T20:02:37.129Z,28.86
2023-02-06T20:05:03.530Z,29.08
2023-02-06T20:07:30.468Z,29.04
2023-02-06T20:09:57.033Z,28.68
2023-02-06T20:12:23.409Z,29.02
2023-02-06T20:14:49.786Z,29.01
2023-02-06T20:17:16.172Z,29.24
2023-02-06T20:19:42.532Z,28.97
2023-02-06T20:22:08.883Z,29.35
2023-02-06T20:24:35.372Z,29.21
2023-02-06T20:27:01.725Z,28.94
2023-02-06T20:29:28.121Z,29.33
2023-02-06T20:31:54.611Z,29.11
2023-02-06T20:34:21.102Z,29.05
2023-02-06T20:36:47.480Z,29.09
2023-02-06T20:39:13.849Z,29.29
2023-02-06T20:41:40.226Z,29.13
2023-02-06T20:44:06.628Z,29.27
2023-02-06T20:46:33.002Z,29.17
2023-02-06T20:48:59.367Z,29.46
2023-02-06T20:51:26.048Z,29.25
2023-02-06T20:53:52.477Z,29.43
2023-02-06T20:56:18.877Z,29.21
2023-02-06T20:58:45.256Z,29.42
2023-02-06T21:01:11.673Z,29.36
2023-02-06T21:03:38.062Z,29.49
2023-02-06T21:06:04.483Z,29.47
2023-02-06T21:08:30.855Z,29.48
2023-02-06T21:10:57.240Z,29.38
2023-02-06T21:13:23.592Z,29.32
2023-02-06T21:15:49.977Z,29.17
2023-02-06T21:18:16.390Z,29.36
2023-02-06T21:20:42.752Z,29.54
2023-02-06T21:23:09.107Z,29.30
2023-02-06T21:25:35.490Z,29.28
2023-02-06T21:28:01.946Z,29.60
2023-02-06T21:30:28.394Z,29.41
2023-02-06T21:32:54.762Z,29.32
2023-02-06T21:35:21.139Z,29.41
2023-02-06T21:37:47.520Z,29.51
2023-02-06T21:40:13.878Z,29.41
2023-02-06T21:42:40.267Z,29.07
2023-02-06T21:45:06.643Z,29.18
2023-02-06T21:47:33.044Z,29.21
2023-02-06T21:49:59.399Z,29.42
2023-02-06T21:52:25.754Z,29.38
2023-02-06T21:54:52.148Z,29.29
2023-02-06T21:57:18.530Z,29.28
2023-02-06T21:59:44.892Z,29.30
2023-02-06T22:02:11.285Z,29.57
2023-02-06T22:04:37.666Z,29.38
2023-02-06T22:07:04.036Z,29.18
2023-02-06T22:09:30.407Z,29.17
2023-02-06T22:11:56.788Z,29.39
2023-02-06T22:14:23.169Z,29.24
2023-02-06T22:16:49.528Z,29.19
2023-02-06T22:19:15.916Z,29.35
2023-02-06T22:21:42.288Z,29.21
2023-02-06T22:24:08.648Z,29.33
2023-02-06T22:26:35.032Z,29.60
2023-02-06T22:29:01.370Z,29.58
2023-02-06T22:31:27.733Z,29.42
2023-02-06T22:33:54.100Z,28.98
2023-02-06T22:36:20.499Z,29.33
2023-02-06T22:38:47.096Z,29.08
2023-02-06T22:41:13.484Z,29.33
2023-02-06T22:43:39.835Z,29.10
2023-02-06T22:46:06.209Z,29.26
2023-02-06T22:48:32.643Z,29.07
2023-02-06T22:50:59.001Z,29.37
2023-02-06T22:53:25.394Z,29.37
2023-02-06T22:55:51.761Z,29.17
2023-02-06T22:58:18.129Z,29.19
2023-02-06T23:00:44.519Z,29.30
2023-02-06T23:03:10.877Z,29.21
2023-02-06T23:05:37.382Z,29.01
2023-02-06T23:08:03.927Z,29.28
2023-02-06T23:10:30.520Z,29.25
2023-02-06T23:12:56.920Z,29.10
2023-02-06T23:15:23.280Z,29.32
2023-02-06T23:17:49.684Z,28.98
2023-02-06T23:20:16.054Z,29.11
2023-02-06T23:22:42.439Z,28.99
2023-02-06T23:25:08.795Z,29.00
2023-02-06T23:27:35.167Z,28.90
2023-02-06T23:30:01.622Z,29.10
2023-02-06T23:32:28.070Z,29.04
2023-02-06T23:34:54.431Z,28.85
2023-02-06T23:37:20.782Z,29.19
2023-02-06T23:39:47.173Z,29.37
2023-02-06T23:42:13.537Z,29.02
2023-02-06T23:44:39.889Z,28.99
2023-02-06T23:47:06.264Z,29.18
2023-02-06T23:49:32.630Z,29.02
2023-02-06T23:51:58.983Z,29.17
2023-02-06T23:54:25.339Z,29.04
2023-02-06T23:56:51.721Z,28.97
2023-02-06T23:59:18.094Z,29.29
